Terminal Aerodrome Forecast
Issued by NWS Omaha/Valley, NE

Home | Current Version | Previous Version | Text Only | Print | Product List | Glossary On
Versions: 1 2 3 4 5 6 7 8 9 10 11 12 13 14 15 16 17 18 19 20 21 22 23 24 25 26 27 28 29 30
000
FTUS43 KOAX 301735
TAFLNK
TAF
KLNK 301735Z 3018/3118 16007KT P6SM SCT250
     FM310700 20009KT P6SM OVC050
     FM311300 19006KT P6SM OVC025 PROB30 3113/3118 5SM -RA=

USA.gov is the U.S. government's official web portal to all federal, state and local government web resources and services.